Time;durP1;ratioP1;P1;durP2;ratioP2;P2;SDS_P1;SDS_P2;PMS_P1;PMS_P2;Temp;Humidity;BMP_temperature;BMP_pressure;BME280_temperature;BME280_humidity;BME280_pressure;Samples;Min_cycle;Max_cycle;Signal;HPM_P1;HPM_P2
2021/04/12 00:01:15;;;;;;;;;14.00;12.50;;;;;17.32;40.94;98732.78;6190288;28;125863;-64
2021/04/12 00:04:35;;;;;;;;;13.00;13.00;;;;;17.30;41.20;98735.78;6211854;28;126278;-64
2021/04/12 00:07:42;;;;;;;;;14.00;13.00;;;;;17.31;40.94;98742.88;6210561;28;126089;-64
2021/04/12 00:10:59;;;;;;;;;16.00;14.00;;;;;17.30;41.35;98740.41;6208444;28;125447;-64
2021/04/12 00:14:08;;;;;;;;;12.00;12.00;;;;;17.18;41.55;98735.22;6200702;28;124341;-64
2021/04/12 00:17:18;;;;;;;;;15.00;14.00;;;;;17.10;41.89;98733.03;6201080;28;126080;-63
2021/04/12 00:20:29;;;;;;;;;16.00;15.75;;;;;17.08;42.41;98735.19;6195213;28;124760;-64
2021/04/12 00:23:41;;;;;;;;;16.75;15.75;;;;;17.02;42.37;98727.25;6209738;28;127122;-64
2021/04/12 00:26:49;;;;;;;;;15.40;13.60;;;;;17.00;42.74;98730.25;6210832;28;124659;-65
2021/04/12 00:29:56;;;;;;;;;18.60;16.60;;;;;16.98;42.64;98726.16;6192676;28;125877;-64
2021/04/12 00:33:04;;;;;;;;;17.00;15.00;;;;;16.93;42.67;98729.66;6199913;28;124758;-64
2021/04/12 00:36:16;;;;;;;;;16.00;14.00;;;;;16.82;42.74;98719.81;6193659;28;124758;-64
2021/04/12 00:39:25;;;;;;;;;18.40;16.00;;;;;16.79;42.78;98720.34;6204537;28;124932;-64
2021/04/12 00:42:42;;;;;;;;;16.00;15.00;;;;;16.73;42.47;98716.78;6195229;28;126514;-64
2021/04/12 00:46:07;;;;;;;;;16.00;15.00;;;;;16.73;42.30;98708.63;6193606;28;125941;-64
2021/04/12 00:49:31;;;;;;;;;15.00;14.00;;;;;16.66;42.07;98713.50;6173559;28;126024;-65
2021/04/12 00:52:52;;;;;;;;;14.00;14.00;;;;;16.45;41.41;98711.72;6165122;28;127454;-65
2021/04/12 00:56:01;;;;;;;;;17.25;16.25;;;;;16.49;41.97;98704.66;6165877;28;126025;-64
2021/04/12 00:59:14;;;;;;;;;11.00;11.00;;;;;16.53;41.72;98707.66;6165230;28;125054;-64
2021/04/12 01:02:32;;;;;;;;;13.25;13.00;;;;;16.53;41.37;98705.78;6175664;28;126049;-63
2021/04/12 01:05:47;;;;;;;;;12.00;12.00;;;;;16.43;41.14;98705.72;6161219;28;125835;-64
2021/04/12 01:09:18;;;;;;;;;15.80;14.00;;;;;16.51;41.02;98697.06;6194258;28;127240;-64
2021/04/12 01:12:52;;;;;;;;;15.60;14.60;;;;;16.16;41.13;98681.38;6169949;28;127723;-64
2021/04/12 01:16:21;;;;;;;;;12.60;11.60;;;;;16.31;41.81;98703.22;6166448;28;126013;-65
2021/04/12 01:20:09;;;;;;;;;15.00;14.80;;;;;16.25;41.96;98696.09;6183880;28;125962;-64
2021/04/12 01:23:48;;;;;;;;;14.00;13.00;;;;;16.15;41.47;98692.50;6174154;28;124797;-65
2021/04/12 01:27:25;;;;;;;;;13.00;13.00;;;;;16.26;41.46;98692.31;6176448;28;124176;-65
2021/04/12 01:30:55;;;;;;;;;13.00;11.00;;;;;16.30;41.30;98692.59;6184549;28;126495;-64
2021/04/12 01:34:45;;;;;;;;;15.00;15.00;;;;;16.39;41.28;98691.84;6169458;28;125214;-65
2021/04/12 01:37:54;;;;;;;;;13.40;12.20;;;;;16.42;41.32;98696.72;6188782;28;125992;-65
2021/04/12 01:41:15;;;;;;;;;15.00;13.00;;;;;16.44;41.33;98699.19;6184308;28;126072;-65
2021/04/12 01:44:29;;;;;;;;;14.80;13.20;;;;;16.43;41.61;98690.22;6168475;28;124672;-63
2021/04/12 01:47:58;;;;;;;;;13.00;12.50;;;;;16.46;41.19;98689.69;6185511;28;126657;-64
2021/04/12 01:51:39;;;;;;;;;14.20;12.40;;;;;16.49;41.09;98691.06;6185282;28;126493;-64
2021/04/12 01:55:17;;;;;;;;;14.00;14.00;;;;;16.47;40.70;98679.63;6150943;28;124890;-64
2021/04/12 01:58:40;;;;;;;;;10.20;10.00;;;;;16.54;40.55;98674.75;6157966;28;125991;-64
2021/04/12 02:02:15;;;;;;;;;13.40;12.40;;;;;16.55;40.45;98672.84;6184900;28;124867;-63
2021/04/12 02:05:32;;;;;;;;;13.00;11.00;;;;;16.56;40.79;98677.22;6180689;28;125854;-63
2021/04/12 02:08:41;;;;;;;;;14.00;14.00;;;;;16.54;40.35;98680.19;6169694;28;123923;-65
2021/04/12 02:11:54;;;;;;;;;13.50;13.00;;;;;16.39;40.62;98678.22;6187459;28;125938;-65
2021/04/12 02:15:07;;;;;;;;;13.00;13.00;;;;;16.41;41.04;98669.81;6182810;28;125598;-65
2021/04/12 02:18:35;;;;;;;;;14.00;12.00;;;;;16.49;40.86;98688.34;6184687;28;124764;-64
2021/04/12 02:22:03;;;;;;;;;14.60;13.60;;;;;16.41;40.75;98677.97;6184432;28;126083;-63
2021/04/12 02:25:16;;;;;;;;;14.00;13.00;;;;;16.33;41.16;98682.00;6187259;28;124846;-65
2021/04/12 02:28:33;;;;;;;;;13.00;13.00;;;;;16.35;41.38;98670.84;6190667;28;126472;-65
2021/04/12 02:31:47;;;;;;;;;13.00;12.80;;;;;16.34;41.18;98674.66;6182535;28;125433;-65
2021/04/12 02:35:06;;;;;;;;;12.40;11.00;;;;;16.35;41.53;98662.69;6188321;28;126214;-65
2021/04/12 02:38:22;;;;;;;;;12.00;10.00;;;;;16.32;41.14;98672.19;6175446;28;126006;-65
2021/04/12 02:41:33;;;;;;;;;11.00;10.00;;;;;16.35;41.05;98668.13;6210303;28;124823;-64
2021/04/12 02:45:08;;;;;;;;;12.80;11.00;;;;;16.35;40.72;98659.97;6192690;28;124815;-64
2021/04/12 02:48:38;;;;;;;;;11.00;11.00;;;;;16.35;40.59;98657.25;6192173;28;124127;-64
2021/04/12 02:51:52;;;;;;;;;10.00;9.40;;;;;16.36;40.33;98667.06;6230528;28;125974;-63
2021/04/12 02:55:11;;;;;;;;;12.00;11.20;;;;;16.38;40.51;98662.97;6235569;28;126034;-64
2021/04/12 02:58:55;;;;;;;;;13.60;13.40;;;;;16.35;39.98;98659.97;6228231;28;125204;-63
2021/04/12 03:02:39;;;;;;;;;13.00;11.00;;;;;16.39;40.05;98666.53;6231138;28;124553;-64
2021/04/12 03:06:06;;;;;;;;;12.00;12.00;;;;;16.43;40.19;98652.13;6234643;28;123974;-64
2021/04/12 03:09:31;;;;;;;;;15.40;14.00;;;;;16.30;40.10;98654.50;6235268;28;127136;-64
2021/04/12 03:13:01;;;;;;;;;15.00;14.60;;;;;16.29;40.22;98653.69;6221667;28;127228;-64
2021/04/12 03:16:21;;;;;;;;;14.00;12.00;;;;;16.26;40.26;98665.09;6229918;27;126062;-63
2021/04/12 03:19:48;;;;;;;;;13.00;11.25;;;;;16.23;40.51;98665.63;6212230;28;125128;-65
2021/04/12 03:23:16;;;;;;;;;15.60;14.00;;;;;16.20;40.41;98665.34;6236077;28;124808;-65
2021/04/12 03:26:36;;;;;;;;;13.00;12.00;;;;;16.23;40.40;98659.34;6220609;28;126062;-65
2021/04/12 03:29:53;;;;;;;;;13.00;13.00;;;;;16.28;40.39;98657.47;6232625;28;127449;-63
2021/04/12 03:33:11;;;;;;;;;14.40;12.40;;;;;16.31;40.40;98651.53;6236110;28;126118;-63
2021/04/12 03:36:26;;;;;;;;;14.00;12.00;;;;;16.29;40.41;98661.03;6236915;28;126515;-63
2021/04/12 03:39:45;;;;;;;;;14.00;13.00;;;;;16.27;40.82;98657.78;6236100;28;126632;-64
2021/04/12 03:43:02;;;;;;;;;17.00;15.00;;;;;16.22;41.64;98661.28;6237694;28;126000;-64
2021/04/12 03:46:23;;;;;;;;;15.00;14.00;;;;;16.15;41.61;98659.88;6234721;27;124560;-64
2021/04/12 03:49:40;;;;;;;;;14.00;14.00;;;;;16.12;40.88;98655.78;6237440;28;126871;-64
2021/04/12 03:53:09;;;;;;;;;16.00;13.00;;;;;15.89;41.48;98620.81;6237668;28;125347;-64
2021/04/12 03:56:25;;;;;;;;;17.60;16.40;;;;;16.03;41.93;98658.16;6218829;28;124776;-64
2021/04/12 03:59:40;;;;;;;;;19.00;16.00;;;;;15.97;42.13;98656.50;6230012;28;126076;-63
2021/04/12 04:03:08;;;;;;;;;16.20;15.20;;;;;15.93;42.30;98652.66;6237558;28;126739;-63
2021/04/12 04:07:23;;;;;;;;;16.60;15.00;;;;;15.88;42.37;98652.59;6225990;28;125818;-64
2021/04/12 04:11:09;;;;;;;;;20.00;19.00;;;;;15.77;42.54;98648.22;6236640;28;124858;-63
2021/04/12 04:14:31;;;;;;;;;16.00;15.00;;;;;15.74;42.52;98650.59;6235618;28;124902;-63
2021/04/12 04:17:54;;;;;;;;;17.60;15.00;;;;;15.68;42.46;98651.66;6217062;28;126006;-64
2021/04/12 04:21:09;;;;;;;;;18.00;17.00;;;;;15.63;42.76;98638.03;6222405;28;124756;-64
2021/04/12 04:24:35;;;;;;;;;17.40;16.00;;;;;15.62;42.89;98649.97;6212213;28;127546;-64
2021/04/12 04:28:10;;;;;;;;;16.60;16.40;;;;;15.65;42.79;98649.44;6203854;28;124964;-64
2021/04/12 04:31:54;;;;;;;;;16.40;16.40;;;;;15.66;42.61;98648.38;6230025;28;126697;-64
2021/04/12 04:35:26;;;;;;;;;19.00;17.00;;;;;15.73;43.17;98652.53;6217315;28;125781;-64
2021/04/12 04:38:54;;;;;;;;;19.00;18.00;;;;;15.73;43.61;98660.69;6159925;28;126977;-64
2021/04/12 04:42:12;;;;;;;;;16.40;15.60;;;;;15.73;43.75;98655.25;6193403;28;124803;-66
2021/04/12 04:45:32;;;;;;;;;17.60;17.00;;;;;15.75;43.89;98654.97;6209272;28;127295;-64
2021/04/12 04:48:54;;;;;;;;;17.40;17.40;;;;;15.77;43.62;98667.22;6184980;28;126011;-64
2021/04/12 04:52:14;;;;;;;;;17.00;16.00;;;;;15.85;43.39;98668.63;6208216;28;125029;-64
2021/04/12 04:55:32;;;;;;;;;18.60;18.00;;;;;15.86;43.50;98662.13;6209316;28;125845;-64
2021/04/12 04:58:49;;;;;;;;;20.00;18.00;;;;;16.03;42.81;98670.94;6196320;28;124858;-63
2021/04/12 05:02:09;;;;;;;;;19.00;17.00;;;;;16.21;42.67;98673.25;6195692;28;123943;-64
2021/04/12 05:05:33;;;;;;;;;16.75;15.75;;;;;16.40;42.07;98682.59;6192197;28;124953;-64
2021/04/12 05:09:22;;;;;;;;;19.40;19.40;;;;;16.62;41.79;98682.44;6191432;28;125262;-64
2021/04/12 05:12:44;;;;;;;;;17.25;15.75;;;;;16.82;41.16;98671.63;6190854;28;125908;-64
2021/04/12 05:16:19;;;;;;;;;16.50;15.50;;;;;17.05;41.07;98680.44;6207872;28;126007;-64
2021/04/12 05:19:39;;;;;;;;;18.60;16.00;;;;;17.24;40.74;98667.94;6190624;28;127168;-64
2021/04/12 05:23:02;;;;;;;;;17.00;16.00;;;;;17.52;41.04;98686.50;6189181;28;126023;-65
2021/04/12 05:26:29;;;;;;;;;16.50;16.00;;;;;17.72;40.66;98681.09;6200031;28;125140;-64
2021/04/12 05:29:58;;;;;;;;;18.25;18.00;;;;;17.91;40.78;98685.97;6176259;28;127202;-64
2021/04/12 05:33:14;;;;;;;;;17.00;17.00;;;;;18.10;40.54;98684.31;6204132;28;125942;-64
2021/04/12 05:36:36;;;;;;;;;17.40;15.60;;;;;18.27;39.84;98679.38;6191988;28;126285;-64
2021/04/12 05:40:02;;;;;;;;;20.00;19.00;;;;;18.47;39.86;98692.16;6196706;28;124958;-64
2021/04/12 05:43:15;;;;;;;;;19.50;18.00;;;;;18.65;39.78;98686.13;6198637;28;123569;-64
2021/04/12 05:46:34;;;;;;;;;20.25;19.00;;;;;18.84;39.46;98684.41;6203625;28;125841;-63
2021/04/12 05:50:18;;;;;;;;;18.00;17.00;;;;;19.07;38.79;98682.91;6178486;28;125446;-66
2021/04/12 05:53:39;;;;;;;;;15.00;14.00;;;;;19.35;38.34;98670.47;6184377;28;125352;-64
2021/04/12 05:57:20;;;;;;;;;15.60;13.60;;;;;19.63;37.34;98669.72;6178359;28;125528;-63
2021/04/12 06:00:30;;;;;;;;;16.00;15.00;;;;;19.84;36.27;98678.59;6160565;28;126032;-63
2021/04/12 06:03:44;;;;;;;;;12.75;12.00;;;;;19.79;36.18;98656.75;6197500;28;126925;-64
2021/04/12 06:07:29;;;;;;;;;18.00;17.40;;;;;20.13;36.97;98684.06;6194639;28;125890;-63
2021/04/12 06:12:00;;;;;;;;;23.00;22.00;;;;;20.29;37.64;98675.41;6121214;28;96871;-63
2021/04/12 06:15:38;;;;;;;;;22.60;21.60;;;;;20.47;37.06;98682.09;6196597;28;126187;-64
2021/04/12 06:19:21;;;;;;;;;20.60;19.00;;;;;20.60;36.45;98683.31;6202486;28;126376;-66
2021/04/12 06:22:49;;;;;;;;;26.25;25.00;;;;;20.75;37.23;98683.94;6199046;28;126038;-65
2021/04/12 06:26:33;;;;;;;;;19.60;19.00;;;;;21.01;37.15;98681.69;6202344;28;125938;-64
2021/04/12 06:30:02;;;;;;;;;13.80;13.80;;;;;21.34;35.35;98679.06;6187500;28;125137;-64
2021/04/12 06:33:38;;;;;;;;;11.00;11.00;;;;;21.56;32.19;98682.84;6199172;28;127210;-63
2021/04/12 06:36:53;;;;;;;;;10.60;10.00;;;;;21.89;32.05;98688.38;6201264;28;126135;-64
2021/04/12 06:40:34;;;;;;;;;9.00;9.00;;;;;22.13;31.64;98693.75;6201736;28;127303;-63
2021/04/12 06:44:07;;;;;;;;;12.00;11.25;;;;;22.31;31.83;98696.41;6187847;28;127035;-63
2021/04/12 06:47:48;;;;;;;;;11.00;10.50;;;;;22.62;31.61;98704.09;6186962;28;125445;-64
2021/04/12 06:51:37;;;;;;;;;11.00;10.50;;;;;22.83;31.22;98703.41;6151830;28;125995;-64
2021/04/12 06:54:54;;;;;;;;;10.40;10.00;;;;;23.21;31.72;98697.66;6206677;28;126789;-65
2021/04/12 06:58:32;;;;;;;;;11.20;10.40;;;;;23.60;30.25;98706.13;6198009;28;127212;-64
2021/04/12 07:02:08;;;;;;;;;7.60;6.40;;;;;23.54;28.46;98712.88;6194992;28;125868;-63
2021/04/12 07:05:47;;;;;;;;;7.00;7.00;;;;;23.57;27.64;98709.50;6187679;28;128073;-63
2021/04/12 07:09:24;;;;;;;;;7.80;6.80;;;;;23.51;27.31;98707.16;6199827;28;126009;-64
2021/04/12 07:13:05;;;;;;;;;6.00;6.00;;;;;23.65;27.15;98708.75;6168290;28;127183;-65
2021/04/12 07:16:32;;;;;;;;;5.25;5.00;;;;;23.77;26.84;98707.41;6190240;28;125859;-64
2021/04/12 07:20:26;;;;;;;;;6.00;6.00;;;;;23.97;27.77;98704.97;6199326;28;125810;-63
2021/04/12 07:24:07;;;;;;;;;8.00;7.00;;;;;24.02;27.05;98706.78;6089570;28;122387;-63
2021/04/12 07:27:55;;;;;;;;;6.00;5.40;;;;;23.66;27.54;98717.81;6173825;28;123825;-65
2021/04/12 07:31:37;;;;;;;;;8.40;8.00;;;;;23.42;27.70;98720.81;6193418;28;124366;-65
2021/04/12 07:35:17;;;;;;;;;6.00;6.00;;;;;23.40;27.99;98714.03;6196870;28;126976;-64
2021/04/12 07:39:18;;;;;;;;;6.00;5.00;;;;;23.41;27.54;98721.16;6168904;28;126416;-64
2021/04/12 07:43:05;;;;;;;;;5.00;5.00;;;;;23.38;28.03;98724.50;6169233;28;127968;-64
2021/04/12 07:46:34;;;;;;;;;8.00;6.00;;;;;23.52;27.84;98720.63;6124966;28;127040;-63
2021/04/12 07:50:20;;;;;;;;;6.00;6.00;;;;;23.66;27.11;98726.09;6203964;28;124849;-64
2021/04/12 07:54:02;;;;;;;;;6.50;5.00;;;;;23.81;26.69;98727.66;6197993;28;124956;-64
2021/04/12 07:57:44;;;;;;;;;6.80;5.20;;;;;23.90;27.12;98714.78;6221445;28;126071;-65
2021/04/12 08:01:20;;;;;;;;;4.50;4.50;;;;;24.14;26.40;98715.28;6197641;28;126160;-65
2021/04/12 08:05:16;;;;;;;;;5.00;5.00;;;;;24.53;26.14;98706.28;6202645;28;128273;-64
2021/04/12 09:18:29;;;;;;;;;9.33;8.33;;;;;26.20;26.18;98706.69;6203894;28;125406;-64
2021/04/12 09:22:11;;;;;;;;;7.80;7.20;;;;;25.94;27.02;98714.25;6203646;28;125901;-66
2021/04/12 09:25:49;;;;;;;;;9.00;8.00;;;;;25.65;26.50;98707.44;6183870;28;126081;-64
2021/04/12 09:29:19;;;;;;;;;10.00;9.00;;;;;25.41;27.40;98713.38;6180492;28;125566;-64
2021/04/12 09:32:51;;;;;;;;;10.00;9.75;;;;;25.22;27.34;98723.88;6198836;28;126754;-64
2021/04/12 09:36:22;;;;;;;;;13.80;13.80;;;;;24.98;27.88;98724.31;6196690;28;123438;-64
2021/04/12 09:40:00;;;;;;;;;13.00;11.00;;;;;24.81;28.35;98715.16;6202424;28;124860;-64
2021/04/12 09:43:31;;;;;;;;;13.00;12.20;;;;;24.68;28.55;98713.34;6154072;28;125741;-64
2021/04/12 09:47:41;;;;;;;;;13.00;13.00;;;;;24.46;28.91;98720.53;6198761;28;127843;-64
2021/04/12 09:51:21;;;;;;;;;11.60;11.40;;;;;24.39;28.88;98709.13;6198878;28;127013;-64
2021/04/12 09:54:57;;;;;;;;;11.20;11.00;;;;;24.28;29.24;98710.53;6201979;28;126070;-65
2021/04/12 09:58:24;;;;;;;;;13.60;13.00;;;;;24.17;29.42;98709.16;6203851;28;126282;-63
2021/04/12 10:01:46;;;;;;;;;10.00;10.00;;;;;24.02;29.01;98717.78;6191739;28;124807;-63
2021/04/12 10:05:11;;;;;;;;;11.00;10.00;;;;;23.76;28.80;98692.81;6197438;28;126872;-65
2021/04/12 10:08:27;;;;;;;;;14.00;13.00;;;;;23.79;29.82;98716.97;6194538;28;125526;-64
2021/04/12 10:11:42;;;;;;;;;11.25;9.25;;;;;23.81;29.38;98719.41;6179028;28;127654;-65
2021/04/12 10:14:50;;;;;;;;;12.00;12.00;;;;;23.82;29.27;98719.09;6177113;28;125146;-64
2021/04/12 10:17:57;;;;;;;;;12.00;12.00;;;;;23.75;29.49;98725.03;6175716;28;124271;-63
2021/04/12 10:21:14;;;;;;;;;11.00;10.00;;;;;23.75;29.32;98725.03;6196233;28;127700;-66
2021/04/12 10:24:25;;;;;;;;;12.50;11.00;;;;;23.77;29.55;98729.41;6205131;28;124767;-65
2021/04/12 10:27:40;;;;;;;;;12.00;12.00;;;;;23.74;29.43;98728.13;6212701;28;127844;-64
2021/04/12 10:30:50;;;;;;;;;11.80;10.00;;;;;23.70;29.99;98730.66;6196193;28;125084;-64
2021/04/12 10:34:12;;;;;;;;;9.80;9.40;;;;;23.68;29.57;98738.44;6204703;28;126345;-64
2021/04/12 10:37:27;;;;;;;;;11.50;10.50;;;;;23.67;30.34;98739.53;6201437;28;127049;-65
2021/04/12 10:40:33;;;;;;;;;11.00;10.00;;;;;23.64;30.08;98731.91;6171335;28;126502;-64
2021/04/12 10:43:45;;;;;;;;;10.75;10.50;;;;;23.61;30.01;98737.22;6198113;28;127963;-64
2021/04/12 10:46:57;;;;;;;;;9.00;9.00;;;;;23.55;29.59;98741.22;6207792;28;126031;-64
2021/04/12 10:50:08;;;;;;;;;8.20;8.20;;;;;23.48;29.40;98729.81;6207355;28;126731;-65
2021/04/12 10:53:37;;;;;;;;;9.00;8.50;;;;;23.43;29.40;98732.66;6201351;28;124912;-64
2021/04/12 10:56:43;;;;;;;;;9.00;8.75;;;;;23.53;29.97;98732.44;6203267;28;126552;-64
2021/04/12 11:00:11;;;;;;;;;6.50;6.50;;;;;22.95;29.24;98647.91;6204534;28;126230;-64
2021/04/12 11:03:50;;;;;;;;;9.00;8.00;;;;;23.49;29.29;98737.78;6202645;28;126143;-63
2021/04/12 11:07:06;;;;;;;;;7.00;7.00;;;;;23.47;28.66;98731.75;6207084;28;125873;-64
2021/04/12 11:10:20;;;;;;;;;8.00;8.00;;;;;23.58;28.58;98741.41;6202599;28;126292;-65
2021/04/12 11:13:32;;;;;;;;;8.00;8.00;;;;;23.70;28.46;98743.63;6206900;28;128138;-65
2021/04/12 11:16:42;;;;;;;;;7.00;7.00;;;;;23.79;28.49;98735.44;6196280;28;125947;-64
2021/04/12 11:20:02;;;;;;;;;8.25;8.00;;;;;23.99;28.48;98741.28;6179241;28;125510;-65
2021/04/12 11:23:09;;;;;;;;;8.00;7.00;;;;;24.33;28.30;98737.97;6200376;28;127067;-65
2021/04/12 11:26:22;;;;;;;;;8.00;8.00;;;;;24.58;28.08;98736.47;6202992;28;123962;-66
2021/04/12 11:29:29;;;;;;;;;6.00;6.00;;;;;24.83;27.89;98738.50;6201211;28;125974;-65
2021/04/12 11:32:46;;;;;;;;;6.00;6.00;;;;;25.11;27.33;98733.63;6187245;28;126064;-65
2021/04/12 11:36:04;;;;;;;;;8.80;7.20;;;;;25.70;27.44;98742.34;6184402;28;126071;-64
2021/04/12 11:39:12;;;;;;;;;7.00;7.00;;;;;26.40;25.82;98741.97;6195078;28;124886;-64
2021/04/12 11:42:18;;;;;;;;;7.00;6.40;;;;;26.58;25.47;98737.22;6198035;28;126057;-63
2021/04/12 11:45:25;;;;;;;;;6.00;6.00;;;;;26.61;25.58;98740.13;6189056;28;126586;-64
2021/04/12 11:48:45;;;;;;;;;8.00;7.00;;;;;26.62;25.18;98750.06;6191750;28;125353;-64
2021/04/12 11:51:58;;;;;;;;;7.80;7.80;;;;;26.52;24.63;98744.06;6207844;28;126987;-63
2021/04/12 11:55:15;;;;;;;;;7.00;6.00;;;;;26.52;25.12;98744.88;6192114;28;124777;-64
2021/04/12 11:58:22;;;;;;;;;7.40;7.40;;;;;26.50;25.49;98746.34;6187011;28;122907;-64
2021/04/12 12:01:31;;;;;;;;;7.00;6.50;;;;;26.62;25.84;98746.47;6209751;28;126410;-64
2021/04/12 12:04:43;;;;;;;;;8.40;8.00;;;;;26.82;25.46;98751.28;6210783;28;126633;-64
2021/04/12 12:07:52;;;;;;;;;10.00;10.00;;;;;26.97;25.40;98750.75;6186222;28;125055;-64
2021/04/12 12:11:03;;;;;;;;;5.60;5.00;;;;;27.19;24.99;98752.44;6191760;28;125055;-64
2021/04/12 12:14:14;;;;;;;;;7.00;7.00;;;;;27.47;23.97;98747.19;6205003;28;125407;-64
2021/04/12 12:17:20;;;;;;;;;6.25;6.00;;;;;27.54;23.89;98753.06;6207644;28;126010;-63
2021/04/12 12:20:30;;;;;;;;;7.00;6.00;;;;;27.46;24.45;98746.41;6205345;28;125955;-64
2021/04/12 12:23:42;;;;;;;;;6.00;5.50;;;;;27.48;24.36;98752.41;6205766;28;126196;-65
2021/04/12 12:26:58;;;;;;;;;6.40;6.40;;;;;27.48;24.03;98741.34;6203056;28;126416;-65
2021/04/12 12:30:09;;;;;;;;;6.00;6.00;;;;;27.59;24.18;98750.09;6207033;28;126488;-65
2021/04/12 12:33:18;;;;;;;;;7.40;6.00;;;;;27.65;24.26;98745.97;6207659;28;124670;-65
2021/04/12 12:36:27;;;;;;;;;6.40;6.40;;;;;27.47;24.69;98742.47;6178116;28;124676;-64
2021/04/12 12:39:36;;;;;;;;;6.40;6.00;;;;;27.46;24.55;98742.84;6190246;28;124576;-64
2021/04/12 12:42:41;;;;;;;;;7.00;7.00;;;;;27.42;23.80;98734.38;6200209;28;124778;-63
2021/04/12 12:45:44;;;;;;;;;7.00;7.00;;;;;27.30;24.82;98712.16;6197817;28;126317;-65
2021/04/12 12:48:50;;;;;;;;;8.00;7.00;;;;;27.46;24.74;98731.75;6186227;28;127601;-63
2021/04/12 12:51:56;;;;;;;;;8.20;7.20;;;;;27.56;23.98;98739.69;6194753;28;125064;-66
2021/04/12 12:55:06;;;;;;;;;7.80;7.40;;;;;27.64;24.38;98740.78;6190261;28;124779;-64
2021/04/12 12:58:12;;;;;;;;;9.00;8.80;;;;;27.33;24.11;98682.97;6201818;28;125459;-63
2021/04/12 13:01:24;;;;;;;;;9.00;9.00;;;;;27.79;23.79;98738.22;6189392;28;125825;-64
2021/04/12 13:04:30;;;;;;;;;6.00;6.00;;;;;27.89;23.10;98737.81;6182204;28;126688;-65
2021/04/12 13:07:34;;;;;;;;;11.00;9.00;;;;;28.12;23.99;98743.81;6197560;28;125981;-64
2021/04/12 13:10:40;;;;;;;;;10.00;9.75;;;;;28.18;23.60;98742.47;6182865;28;124777;-64
2021/04/12 13:13:43;;;;;;;;;12.00;11.00;;;;;28.04;23.25;98741.09;6200257;28;125912;-64
2021/04/12 13:16:52;;;;;;;;;10.00;9.00;;;;;27.79;23.56;98716.06;6195440;28;126798;-64
2021/04/12 13:19:58;;;;;;;;;10.40;10.00;;;;;27.91;24.09;98737.44;6198232;28;126036;-64
2021/04/12 13:23:08;;;;;;;;;10.20;8.80;;;;;27.98;22.98;98741.31;6196929;28;126198;-65
2021/04/12 13:26:18;;;;;;;;;8.20;8.00;;;;;28.33;24.00;98741.00;6181623;28;126076;-64
2021/04/12 13:29:23;;;;;;;;;11.00;10.00;;;;;28.42;23.31;98748.06;6193288;28;127856;-64
2021/04/12 13:32:28;;;;;;;;;9.33;9.00;;;;;28.52;23.78;98740.47;6200928;28;127742;-64
2021/04/12 13:35:34;;;;;;;;;11.00;9.00;;;;;28.37;23.32;98756.63;6190763;28;125807;-64
2021/04/12 13:38:40;;;;;;;;;10.00;9.20;;;;;28.17;23.66;98754.69;6205829;28;124739;-65
2021/04/12 13:41:47;;;;;;;;;9.00;8.60;;;;;28.16;23.60;98758.59;6206661;28;126970;-64
2021/04/12 13:44:53;;;;;;;;;10.00;9.00;;;;;27.97;23.81;98742.44;6205817;28;125999;-65
2021/04/12 13:48:05;;;;;;;;;10.00;10.00;;;;;27.87;23.27;98751.16;6206620;28;125840;-64
2021/04/12 13:51:13;;;;;;;;;8.80;7.00;;;;;27.92;23.38;98744.63;6201080;28;124238;-64
2021/04/12 13:54:21;;;;;;;;;9.20;8.00;;;;;28.27;23.83;98754.28;6187962;28;125022;-64
2021/04/12 13:57:31;;;;;;;;;7.20;6.60;;;;;28.17;23.28;98763.00;6202209;28;125353;-64
2021/04/12 14:00:36;;;;;;;;;7.20;6.20;;;;;28.10;22.95;98754.38;6190856;28;127320;-64
2021/04/12 14:03:54;;;;;;;;;7.00;6.00;;;;;27.95;22.97;98757.81;6202899;28;126029;-63
2021/04/12 14:07:00;;;;;;;;;6.00;6.00;;;;;27.92;23.16;98759.28;6181028;28;127785;-64
2021/04/12 14:10:10;;;;;;;;;8.00;8.00;;;;;27.82;24.20;98756.09;6201013;28;126053;-64
2021/04/12 14:13:19;;;;;;;;;7.00;7.00;;;;;27.51;23.79;98757.31;6205311;28;126465;-64
2021/04/12 14:16:24;;;;;;;;;9.40;8.60;;;;;27.32;24.35;98759.66;6201124;28;124776;-65
2021/04/12 14:19:32;;;;;;;;;7.00;7.00;;;;;27.21;24.31;98761.22;6203434;28;123903;-65
2021/04/12 14:22:41;;;;;;;;;10.00;8.75;;;;;27.03;24.17;98754.94;6203596;28;124970;-65
2021/04/12 14:25:45;;;;;;;;;8.00;8.00;;;;;26.98;24.74;98763.44;6207893;28;124038;-64
2021/04/12 14:28:50;;;;;;;;;9.40;8.60;;;;;26.96;24.85;98764.91;6207090;28;126457;-64
2021/04/12 14:31:54;;;;;;;;;9.00;9.00;;;;;26.95;25.44;98760.53;6186399;28;125595;-64
2021/04/12 14:35:04;;;;;;;;;9.80;9.80;;;;;26.96;25.13;98773.22;6206787;28;123775;-64
2021/04/12 14:38:09;;;;;;;;;9.00;8.00;;;;;26.98;25.31;98770.91;6206986;28;126215;-65
2021/04/12 14:41:16;;;;;;;;;8.00;8.00;;;;;27.01;25.13;98761.97;6191129;28;126995;-64
2021/04/12 14:44:34;;;;;;;;;9.40;9.00;;;;;27.08;24.89;98760.28;6208776;28;124664;-63
2021/04/12 14:47:41;;;;;;;;;8.00;8.00;;;;;27.08;24.83;98757.53;6197722;28;124829;-64
2021/04/12 14:50:49;;;;;;;;;10.00;9.50;;;;;27.06;24.86;98761.78;6198018;28;124746;-64
2021/04/12 14:53:57;;;;;;;;;10.00;9.00;;;;;26.95;24.89;98763.28;6194922;28;127233;-65
2021/04/12 14:57:08;;;;;;;;;8.60;8.00;;;;;26.82;25.15;98767.88;6201101;28;126623;-63
2021/04/12 15:00:25;;;;;;;;;9.00;8.00;;;;;26.78;25.35;98775.19;6193109;28;126582;-65
2021/04/12 15:03:32;;;;;;;;;9.50;9.00;;;;;26.58;25.42;98770.41;6204783;28;125945;-64
2021/04/12 15:06:39;;;;;;;;;9.25;8.00;;;;;26.39;25.34;98767.97;6212324;28;127625;-63
2021/04/12 15:09:50;;;;;;;;;9.00;8.50;;;;;26.18;25.51;98767.03;6191964;28;126568;-63
2021/04/12 15:12:58;;;;;;;;;10.40;9.40;;;;;26.04;25.83;98771.91;6209511;28;126491;-64
2021/04/12 15:16:18;;;;;;;;;10.00;9.00;;;;;25.84;26.22;98782.47;6201538;28;124770;-64
2021/04/12 15:19:27;;;;;;;;;11.40;10.00;;;;;25.83;26.44;98783.63;6192642;28;126442;-63
2021/04/12 15:22:32;;;;;;;;;10.00;9.00;;;;;25.84;26.35;98781.66;6210410;28;126431;-63
2021/04/12 15:25:38;;;;;;;;;10.40;10.00;;;;;25.83;26.22;98786.38;6181477;28;124649;-63
2021/04/12 15:28:41;;;;;;;;;9.00;9.00;;;;;25.86;26.30;98790.41;6202678;28;125939;-65
2021/04/12 15:31:46;;;;;;;;;10.20;10.00;;;;;25.80;26.23;98784.25;6188951;28;125209;-64
2021/04/12 15:34:51;;;;;;;;;13.40;12.00;;;;;25.65;26.00;98781.97;6191868;28;123141;-64
2021/04/12 15:37:58;;;;;;;;;12.40;11.00;;;;;25.55;26.83;98787.00;6208751;28;124767;-63
2021/04/12 15:41:07;;;;;;;;;14.00;14.00;;;;;25.26;27.50;98780.09;6210428;28;124033;-63
2021/04/12 15:44:18;;;;;;;;;19.60;18.60;;;;;25.28;27.84;98793.53;6198201;28;126054;-64
2021/04/12 15:47:25;;;;;;;;;23.40;21.40;;;;;25.19;28.42;98790.75;6203739;28;124329;-65
2021/04/12 15:50:31;;;;;;;;;23.60;22.00;;;;;25.14;28.60;98799.19;6206986;28;127171;-65
2021/04/12 15:53:35;;;;;;;;;25.80;23.00;;;;;25.12;28.50;98800.66;6209736;28;126746;-65
2021/04/12 15:56:40;;;;;;;;;26.40;23.00;;;;;25.05;29.02;98814.06;6210536;28;127183;-64
2021/04/12 15:59:54;;;;;;;;;28.60;28.60;;;;;24.88;29.23;98812.84;6221177;28;128103;-64
2021/04/12 16:03:03;;;;;;;;;31.00;28.00;;;;;24.73;30.12;98818.75;6182035;28;124944;-64
2021/04/12 16:06:08;;;;;;;;;29.20;28.00;;;;;24.54;30.73;98834.69;6207787;28;126551;-65
2021/04/12 16:09:26;;;;;;;;;31.00;29.00;;;;;24.21;31.44;98828.63;6213495;28;124545;-65
2021/04/12 16:12:32;;;;;;;;;29.00;27.75;;;;;24.04;32.09;98844.97;6178260;28;124620;-65
2021/04/12 16:15:53;;;;;;;;;33.40;29.40;;;;;23.86;32.48;98855.00;6192710;28;124769;-63
2021/04/12 16:19:04;;;;;;;;;29.80;27.80;;;;;23.71;32.68;98849.84;6191386;28;126771;-63
2021/04/12 16:22:16;;;;;;;;;31.67;30.00;;;;;23.60;32.74;98857.47;6207457;28;125881;-63
2021/04/12 16:25:24;;;;;;;;;29.00;27.00;;;;;23.41;33.12;98862.25;6208342;28;126126;-63